createdAt,value
2022-12-03T00:01:48.970Z,42.05
2022-12-03T00:04:51.882Z,34.72
2022-12-03T00:07:54.326Z,40.92
2022-12-03T00:10:56.796Z,38.38
2022-12-03T00:13:58.952Z,33.67
2022-12-03T00:17:01.574Z,39.63
2022-12-03T00:20:05.760Z,40.47
2022-12-03T00:23:08.084Z,50.33
2022-12-03T00:26:10.284Z,41.33
2022-12-03T00:29:12.815Z,42.15
2022-12-03T00:32:15.047Z,35.88
2022-12-03T00:35:17.594Z,39.22
2022-12-03T00:38:19.860Z,41.75
2022-12-03T00:41:22.368Z,42.05
2022-12-03T00:44:24.643Z,45.83
2022-12-03T00:47:27.167Z,42.22
2022-12-03T00:50:29.291Z,40.83
2022-12-03T00:53:31.805Z,44.35
2022-12-03T00:56:34.117Z,37.80
2022-12-03T00:59:36.584Z,48.30
2022-12-03T01:02:38.780Z,39.42
2022-12-03T01:05:41.202Z,37.45
2022-12-03T01:08:44.234Z,39.75
2022-12-03T01:11:46.678Z,39.60
2022-12-03T01:14:49.253Z,33.85
2022-12-03T01:17:54.184Z,42.15
2022-12-03T01:20:56.285Z,46.15
2022-12-03T01:23:58.865Z,43.83
2022-12-03T01:27:01.217Z,41.20
2022-12-03T01:30:04.808Z,37.92
2022-12-03T01:33:07.494Z,42.35
2022-12-03T01:36:09.927Z,40.65
2022-12-03T01:39:12.078Z,42.00
2022-12-03T01:42:21.976Z,44.22
2022-12-03T01:45:24.363Z,46.40
2022-12-03T01:48:35.437Z,45.72
2022-12-03T01:51:37.608Z,42.88
2022-12-03T01:54:53.501Z,49.70
2022-12-03T01:57:59.406Z,40.47
2022-12-03T02:01:07.178Z,43.53
2022-12-03T02:04:15.558Z,48.47
2022-12-03T02:07:22.078Z,47.45
2022-12-03T02:10:34.637Z,41.28
2022-12-03T02:13:37.720Z,38.22
2022-12-03T02:16:41.798Z,40.50
2022-12-03T02:19:44.586Z,43.60
2022-12-03T02:23:13.560Z,47.25
2022-12-03T02:26:16.067Z,42.03
2022-12-03T02:29:18.546Z,44.63
2022-12-03T02:32:23.467Z,45.55
2022-12-03T02:35:36.480Z,43.55
2022-12-03T02:38:39.839Z,38.90
2022-12-03T02:42:00.993Z,46.20
2022-12-03T02:45:11.402Z,41.15
2022-12-03T02:48:28.304Z,42.58
2022-12-03T02:51:31.291Z,38.25
2022-12-03T02:54:33.729Z,46.25
2022-12-03T02:57:37.937Z,50.33
2022-12-03T03:00:41.288Z,47.62
2022-12-03T03:03:45.481Z,45.40
2022-12-03T03:06:47.932Z,37.53
2022-12-03T03:09:50.648Z,41.03
2022-12-03T03:12:54.998Z,40.55
2022-12-03T03:15:57.499Z,43.53
2022-12-03T03:19:00.111Z,55.63
2022-12-03T03:22:02.550Z,40.65
2022-12-03T03:25:05.883Z,46.15
2022-12-03T03:28:08.942Z,42.80
2022-12-03T03:31:14.241Z,42.58
2022-12-03T03:34:17.492Z,43.33
2022-12-03T03:37:19.868Z,46.72
2022-12-03T03:40:22.392Z,40.33
2022-12-03T03:43:25.288Z,44.30
2022-12-03T03:46:28.720Z,43.42
2022-12-03T03:49:31.291Z,43.47
2022-12-03T03:52:36.251Z,34.13
2022-12-03T03:55:39.498Z,38.70
2022-12-03T03:58:41.981Z,47.67
2022-12-03T04:01:45.551Z,40.22
2022-12-03T04:04:49.020Z,42.50
2022-12-03T04:07:51.557Z,39.15
2022-12-03T04:11:13.005Z,42.03
2022-12-03T04:14:15.218Z,36.42
2022-12-03T04:17:17.673Z,44.20
2022-12-03T04:20:19.776Z,41.75
2022-12-03T04:23:25.000Z,41.47
2022-12-03T04:26:50.353Z,40.38
2022-12-03T04:29:53.322Z,37.45
2022-12-03T04:33:14.162Z,41.95
2022-12-03T04:36:17.036Z,44.58
2022-12-03T04:39:19.818Z,40.80
2022-12-03T04:42:22.260Z,47.45
2022-12-03T04:45:25.483Z,47.55
2022-12-03T04:48:27.938Z,44.60
2022-12-03T04:51:30.151Z,46.45
2022-12-03T04:54:36.348Z,52.95
2022-12-03T04:57:38.453Z,44.70
2022-12-03T05:00:40.831Z,44.72
2022-12-03T05:03:42.953Z,44.03
2022-12-03T05:06:45.879Z,44.78
2022-12-03T05:09:48.091Z,49.83
2022-12-03T05:12:50.463Z,41.17
2022-12-03T05:15:53.584Z,58.33
2022-12-03T05:18:56.271Z,43.45
2022-12-03T05:21:58.458Z,44.17
2022-12-03T05:25:00.928Z,44.40
2022-12-03T05:28:04.096Z,48.60
2022-12-03T05:31:06.820Z,47.95
2022-12-03T05:34:10.090Z,45.67
2022-12-03T05:37:12.507Z,45.17
2022-12-03T05:40:15.406Z,57.45
2022-12-03T05:43:18.061Z,46.97
2022-12-03T05:46:20.498Z,47.28
2022-12-03T05:49:22.945Z,46.45
2022-12-03T05:52:25.166Z,41.42
2022-12-03T05:55:28.000Z,47.67
2022-12-03T05:58:31.285Z,44.20
2022-12-03T06:01:34.495Z,41.88
2022-12-03T06:04:36.881Z,44.63
2022-12-03T06:07:39.830Z,44.47
2022-12-03T06:10:42.443Z,48.55
2022-12-03T06:13:44.790Z,42.42
2022-12-03T06:16:47.329Z,44.78
2022-12-03T06:19:49.514Z,46.70
2022-12-03T06:22:51.953Z,40.40
2022-12-03T06:25:54.105Z,44.08
2022-12-03T06:28:56.829Z,37.90
2022-12-03T06:31:58.930Z,38.83
2022-12-03T06:35:01.413Z,42.88
2022-12-03T06:38:03.539Z,41.67
2022-12-03T06:41:05.968Z,40.12
2022-12-03T06:44:08.098Z,43.00
2022-12-03T06:47:10.539Z,37.17
2022-12-03T06:50:13.753Z,37.28
2022-12-03T06:53:16.534Z,46.37
2022-12-03T06:56:22.046Z,41.35
2022-12-03T06:59:26.787Z,33.28
2022-12-03T07:02:29.033Z,43.38
2022-12-03T07:05:33.814Z,43.38
2022-12-03T07:08:35.966Z,38.78
2022-12-03T07:11:41.378Z,53.13
2022-12-03T07:14:45.887Z,43.10
2022-12-03T07:17:48.509Z,52.33
2022-12-03T07:20:50.814Z,45.85
2022-12-03T07:23:55.269Z,48.25
2022-12-03T07:26:57.534Z,37.63
2022-12-03T07:29:59.984Z,44.05
2022-12-03T07:33:02.380Z,46.60
2022-12-03T07:36:05.075Z,44.63
2022-12-03T07:39:08.319Z,47.47
2022-12-03T07:42:11.036Z,47.92
2022-12-03T07:45:13.226Z,45.05
2022-12-03T07:48:15.634Z,44.40
2022-12-03T07:51:17.818Z,42.17
2022-12-03T07:54:21.547Z,57.78
2022-12-03T07:57:23.835Z,42.22
2022-12-03T08:00:30.852Z,46.72
2022-12-03T08:03:33.262Z,42.15
2022-12-03T08:06:35.561Z,42.53
2022-12-03T08:09:40.129Z,46.88
2022-12-03T08:12:42.561Z,47.33
2022-12-03T08:15:45.397Z,43.45
2022-12-03T08:18:48.614Z,45.80
2022-12-03T08:21:54.044Z,50.00
2022-12-03T08:24:58.806Z,46.42
2022-12-03T08:28:13.146Z,48.92
2022-12-03T08:31:19.896Z,47.70
2022-12-03T08:34:27.281Z,55.17
2022-12-03T08:37:29.910Z,48.87
2022-12-03T08:40:39.491Z,44.90
2022-12-03T08:43:43.792Z,52.10
2022-12-03T08:46:52.794Z,51.45
2022-12-03T08:50:25.620Z,48.67
2022-12-03T08:53:35.158Z,43.80
2022-12-03T08:56:37.554Z,49.90
2022-12-03T08:59:44.181Z,48.25
2022-12-03T09:02:51.348Z,49.55
2022-12-03T09:05:53.773Z,50.40
2022-12-03T09:08:56.099Z,43.63
2022-12-03T09:11:58.599Z,46.40
2022-12-03T09:15:01.735Z,43.90
2022-12-03T09:18:04.276Z,51.20
2022-12-03T09:21:06.457Z,45.15
2022-12-03T09:24:08.958Z,45.47
2022-12-03T09:27:11.093Z,47.42
2022-12-03T09:30:13.773Z,46.70
2022-12-03T09:33:16.004Z,48.05
2022-12-03T09:36:19.007Z,45.97
2022-12-03T09:39:21.141Z,48.13
2022-12-03T09:42:24.701Z,46.28
2022-12-03T09:45:28.014Z,47.30
2022-12-03T09:48:30.626Z,46.22
2022-12-03T09:51:35.476Z,45.17
2022-12-03T09:54:42.766Z,46.15
2022-12-03T09:57:48.392Z,41.30
2022-12-03T10:00:52.330Z,42.25
2022-12-03T10:03:54.968Z,39.95
2022-12-03T10:06:58.811Z,42.17
2022-12-03T10:10:01.281Z,44.97
2022-12-03T10:13:06.345Z,48.08
2022-12-03T10:16:12.140Z,42.35
2022-12-03T10:19:27.603Z,42.80
2022-12-03T10:22:36.703Z,45.33
2022-12-03T10:26:04.953Z,40.60
2022-12-03T10:29:16.978Z,36.28
2022-12-03T10:32:24.234Z,42.25
2022-12-03T10:35:41.511Z,34.53
2022-12-03T10:38:43.781Z,41.65
2022-12-03T10:41:46.301Z,40.45
2022-12-03T10:44:48.600Z,42.15
2022-12-03T10:48:20.135Z,41.45
2022-12-03T10:51:22.453Z,42.55
2022-12-03T10:54:27.383Z,40.33
2022-12-03T10:57:30.663Z,38.10
2022-12-03T11:00:33.090Z,37.03
2022-12-03T11:03:36.794Z,45.17
2022-12-03T11:06:39.303Z,35.00
2022-12-03T11:09:45.079Z,35.72
2022-12-03T11:13:25.571Z,40.35
2022-12-03T11:16:40.076Z,33.13
2022-12-03T11:19:46.791Z,35.63
2022-12-03T11:22:58.985Z,33.72
2022-12-03T11:26:01.685Z,27.70
2022-12-03T11:29:05.332Z,35.97
2022-12-03T11:32:08.690Z,30.48
2022-12-03T11:35:23.002Z,30.45
2022-12-03T11:38:37.720Z,31.05
2022-12-03T11:41:39.872Z,29.50
2022-12-03T11:44:43.128Z,31.80
2022-12-03T11:48:17.330Z,36.85
2022-12-03T11:51:24.188Z,28.15
2022-12-03T11:54:26.615Z,31.27
2022-12-03T11:57:33.950Z,29.45
2022-12-03T12:00:36.154Z,31.30
2022-12-03T12:03:47.511Z,30.02
2022-12-03T12:06:53.299Z,31.35
2022-12-03T12:09:57.255Z,25.00
2022-12-03T12:12:59.751Z,29.23
2022-12-03T12:16:06.966Z,26.62
2022-12-03T12:19:43.004Z,30.80
2022-12-03T12:22:45.410Z,29.52
2022-12-03T12:25:53.766Z,29.20
2022-12-03T12:32:12.081Z,24.60
2022-12-03T12:35:25.693Z,35.63
2022-12-03T12:38:28.745Z,28.25
2022-12-03T12:41:31.279Z,29.73
2022-12-03T12:44:33.390Z,28.30
2022-12-03T12:47:36.912Z,29.80
2022-12-03T12:50:40.394Z,29.48
2022-12-03T12:53:42.985Z,43.20
2022-12-03T12:56:50.517Z,29.55
2022-12-03T12:59:56.002Z,29.60
2022-12-03T13:03:01.270Z,32.13
2022-12-03T13:06:04.185Z,26.62
2022-12-03T13:09:18.898Z,28.87
2022-12-03T13:12:23.485Z,29.10
2022-12-03T13:15:59.917Z,32.58
2022-12-03T13:19:03.014Z,30.77
2022-12-03T13:22:16.040Z,30.10
2022-12-03T13:25:59.244Z,34.92
2022-12-03T13:29:06.198Z,30.77
2022-12-03T13:35:30.155Z,33.97
2022-12-03T13:38:32.562Z,30.35
2022-12-03T13:41:53.516Z,29.75
2022-12-03T13:44:56.442Z,35.88
2022-12-03T13:48:01.085Z,29.98
2022-12-03T13:51:23.885Z,27.05
2022-12-03T13:54:31.274Z,27.50
2022-12-03T13:57:33.697Z,30.60
2022-12-03T14:00:36.047Z,27.83
2022-12-03T14:03:39.634Z,26.15
2022-12-03T14:06:41.922Z,28.55
2022-12-03T14:09:44.929Z,29.15
2022-12-03T14:12:47.106Z,30.02
2022-12-03T14:15:49.506Z,29.02
2022-12-03T14:18:51.627Z,27.67
2022-12-03T14:21:54.066Z,34.45
2022-12-03T14:24:57.644Z,27.25
2022-12-03T14:28:00.872Z,25.95
2022-12-03T14:31:02.989Z,27.25
2022-12-03T14:34:05.478Z,27.87
2022-12-03T14:37:07.733Z,27.23
2022-12-03T14:40:10.579Z,25.85
2022-12-03T14:43:14.777Z,27.52
2022-12-03T14:46:17.221Z,32.28
2022-12-03T14:49:19.370Z,33.35
2022-12-03T14:52:23.067Z,29.27
2022-12-03T14:55:25.259Z,32.63
2022-12-03T14:58:28.009Z,25.75
2022-12-03T15:01:30.178Z,26.58
2022-12-03T15:04:32.730Z,30.25
2022-12-03T15:07:35.017Z,27.40
2022-12-03T15:10:37.502Z,29.92
2022-12-03T15:13:39.747Z,30.88
2022-12-03T15:16:42.495Z,28.65
2022-12-03T15:19:44.657Z,26.00
2022-12-03T15:22:47.357Z,29.10
2022-12-03T15:25:49.542Z,28.27
2022-12-03T15:28:53.031Z,35.53
2022-12-03T15:31:55.323Z,31.37
2022-12-03T15:34:57.843Z,27.75
2022-12-03T15:38:00.550Z,27.02
2022-12-03T15:41:20.930Z,30.60
2022-12-03T15:44:23.065Z,27.45
2022-12-03T15:47:25.651Z,25.52
2022-12-03T15:50:27.787Z,30.92
2022-12-03T15:53:30.249Z,27.27
2022-12-03T15:56:32.680Z,29.90
2022-12-03T15:59:35.204Z,28.20
2022-12-03T16:02:37.357Z,28.52
2022-12-03T16:05:42.877Z,29.52
2022-12-03T16:08:45.094Z,26.95
2022-12-03T16:11:48.952Z,31.55
2022-12-03T16:14:51.481Z,26.42
2022-12-03T16:17:53.922Z,23.65
2022-12-03T16:20:58.122Z,23.48
2022-12-03T16:24:01.569Z,28.20
2022-12-03T16:27:03.828Z,26.10
2022-12-03T16:30:07.049Z,27.83
2022-12-03T16:33:09.250Z,27.87
2022-12-03T16:36:14.357Z,28.48
2022-12-03T16:39:16.557Z,29.10
2022-12-03T16:42:19.183Z,34.45
2022-12-03T16:45:27.226Z,34.15
2022-12-03T16:48:30.187Z,30.40
2022-12-03T16:51:32.716Z,31.17
2022-12-03T16:54:39.112Z,27.15
2022-12-03T16:57:41.217Z,33.72
2022-12-03T17:00:43.674Z,33.08
2022-12-03T17:03:45.780Z,32.95
2022-12-03T17:06:48.506Z,33.03
2022-12-03T17:09:50.719Z,31.60
2022-12-03T17:13:09.990Z,34.85
2022-12-03T17:16:12.568Z,34.20
2022-12-03T17:19:15.061Z,39.78
2022-12-03T17:22:17.205Z,35.88
2022-12-03T17:25:19.657Z,37.20
2022-12-03T17:28:21.827Z,35.03
2022-12-03T17:31:24.322Z,38.88
2022-12-03T17:34:26.498Z,34.63
2022-12-03T17:37:28.954Z,38.25
2022-12-03T17:40:31.362Z,39.50
2022-12-03T17:43:34.028Z,38.33
2022-12-03T17:46:36.265Z,40.75
2022-12-03T17:49:38.807Z,34.30
2022-12-03T17:52:41.035Z,39.03
2022-12-03T17:55:45.175Z,38.38
2022-12-03T17:58:47.546Z,43.30
2022-12-03T18:01:50.042Z,36.72
2022-12-03T18:04:52.554Z,34.95
2022-12-03T18:07:54.759Z,40.25
2022-12-03T18:10:57.201Z,35.55
2022-12-03T18:14:01.488Z,36.67
2022-12-03T18:17:03.948Z,40.22
2022-12-03T18:20:07.284Z,45.22
2022-12-03T18:23:09.691Z,40.85
2022-12-03T18:26:12.024Z,40.38
2022-12-03T18:29:14.535Z,46.25
2022-12-03T18:32:28.448Z,44.40
2022-12-03T18:35:32.031Z,45.05
2022-12-03T18:38:34.219Z,38.67
2022-12-03T18:41:36.897Z,42.90
2022-12-03T18:44:39.088Z,58.45
2022-12-03T18:47:42.331Z,40.95
2022-12-03T18:50:45.512Z,43.50
2022-12-03T18:53:49.330Z,36.72
2022-12-03T18:56:51.474Z,43.00
2022-12-03T18:59:54.128Z,38.28
2022-12-03T19:03:04.697Z,38.70
2022-12-03T19:06:17.184Z,41.40
2022-12-03T19:09:21.335Z,43.78
2022-12-03T19:12:23.813Z,44.90
2022-12-03T19:15:25.944Z,48.53
2022-12-03T19:18:29.029Z,43.83
2022-12-03T19:21:33.903Z,39.72
2022-12-03T19:24:36.492Z,40.17
2022-12-03T19:27:40.400Z,44.20
2022-12-03T19:30:42.829Z,44.55
2022-12-03T19:33:46.359Z,41.10
2022-12-03T19:36:49.093Z,40.10
2022-12-03T19:39:54.768Z,39.55
2022-12-03T19:42:57.415Z,42.17
2022-12-03T19:46:08.833Z,42.53
2022-12-03T19:49:12.011Z,39.88
2022-12-03T19:52:15.638Z,40.03
2022-12-03T19:55:19.522Z,49.97
2022-12-03T19:58:21.982Z,45.40
2022-12-03T20:01:27.747Z,41.92
2022-12-03T20:04:30.231Z,40.55
2022-12-03T20:07:32.453Z,40.40
2022-12-03T20:10:35.421Z,42.10
2022-12-03T20:13:37.590Z,47.55
2022-12-03T20:16:41.200Z,39.72
2022-12-03T20:19:43.451Z,44.13
2022-12-03T20:22:46.129Z,42.75
2022-12-03T20:25:48.297Z,49.72
2022-12-03T20:28:53.589Z,44.58
2022-12-03T20:31:55.850Z,44.78
2022-12-03T20:34:58.367Z,40.97
2022-12-03T20:38:00.518Z,43.35
2022-12-03T20:41:05.879Z,41.65
2022-12-03T20:44:10.423Z,50.22
2022-12-03T20:47:12.889Z,43.50
2022-12-03T20:50:15.324Z,43.87
2022-12-03T20:53:24.697Z,44.92
2022-12-03T20:56:34.404Z,43.13
2022-12-03T20:59:36.868Z,52.47
2022-12-03T21:02:39.084Z,46.78
2022-12-03T21:05:43.864Z,45.12
2022-12-03T21:08:46.474Z,38.25
2022-12-03T21:11:49.539Z,45.42
2022-12-03T21:14:51.999Z,42.15
2022-12-03T21:17:54.473Z,42.15
2022-12-03T21:21:00.257Z,50.65
2022-12-03T21:24:05.021Z,45.33
2022-12-03T21:27:07.179Z,50.20
2022-12-03T21:30:09.939Z,40.03
2022-12-03T21:33:12.129Z,53.20
2022-12-03T21:36:16.967Z,50.03
2022-12-03T21:39:19.350Z,43.78
2022-12-03T21:42:35.711Z,43.67
2022-12-03T21:45:40.621Z,47.88
2022-12-03T21:48:44.875Z,44.33
2022-12-03T21:51:47.066Z,42.75
2022-12-03T21:54:52.459Z,43.95
2022-12-03T21:57:54.664Z,46.80
2022-12-03T22:00:57.186Z,47.67
2022-12-03T22:04:00.169Z,44.00
2022-12-03T22:07:02.877Z,47.30
2022-12-03T22:10:08.660Z,52.83
2022-12-03T22:13:10.841Z,47.03
2022-12-03T22:16:17.350Z,49.42
2022-12-03T22:19:25.942Z,42.90
2022-12-03T22:22:28.643Z,52.05
2022-12-03T22:25:30.825Z,44.72
2022-12-03T22:28:34.437Z,48.87
2022-12-03T22:31:36.714Z,50.28
2022-12-03T22:34:40.925Z,42.00
2022-12-03T22:37:43.134Z,49.00
2022-12-03T22:40:47.023Z,43.85
2022-12-03T22:43:49.781Z,44.13
2022-12-03T22:46:52.371Z,50.88
2022-12-03T22:49:55.185Z,48.53
2022-12-03T22:52:57.995Z,55.40
2022-12-03T22:56:00.558Z,43.22
2022-12-03T22:59:03.065Z,46.72
2022-12-03T23:02:05.543Z,45.38
2022-12-03T23:05:08.020Z,46.97
2022-12-03T23:08:19.512Z,47.67
2022-12-03T23:11:22.346Z,41.78
2022-12-03T23:14:24.496Z,47.28
2022-12-03T23:17:26.933Z,44.30
2022-12-03T23:20:30.362Z,36.20
2022-12-03T23:23:33.902Z,45.00
2022-12-03T23:26:38.539Z,51.53
2022-12-03T23:29:41.057Z,39.83
2022-12-03T23:32:44.370Z,49.50
2022-12-03T23:35:46.986Z,42.65
2022-12-03T23:38:49.386Z,50.17
2022-12-03T23:41:54.695Z,45.83
2022-12-03T23:44:59.125Z,52.50
2022-12-03T23:48:01.548Z,41.65
2022-12-03T23:51:13.015Z,44.20
2022-12-03T23:54:15.917Z,43.08
2022-12-03T23:57:18.991Z,43.28
